createdAt,value
2022-12-13T00:01:56.149Z,42.38
2022-12-13T00:04:24.083Z,47.83
2022-12-13T00:06:51.223Z,41.72
2022-12-13T00:09:18.951Z,43.83
2022-12-13T00:11:45.858Z,41.13
2022-12-13T00:14:14.288Z,42.42
2022-12-13T00:16:41.142Z,49.53
2022-12-13T00:19:07.849Z,65.38
2022-12-13T00:21:34.544Z,52.70
2022-12-13T00:24:01.422Z,43.65
2022-12-13T00:26:31.103Z,48.03
2022-12-13T00:29:05.696Z,46.83
2022-12-13T00:34:19.194Z,41.85
2022-12-13T00:36:46.585Z,41.35
2022-12-13T00:39:14.077Z,42.88
2022-12-13T00:41:41.500Z,49.20
2022-12-13T00:44:08.068Z,47.80
2022-12-13T00:46:34.639Z,45.50
2022-12-13T00:49:01.858Z,40.92
2022-12-13T00:51:31.033Z,44.40
2022-12-13T00:53:58.716Z,40.22
2022-12-13T00:56:27.087Z,47.85
2022-12-13T00:58:54.044Z,38.00
2022-12-13T01:01:24.582Z,39.22
2022-12-13T01:03:54.047Z,51.65
2022-12-13T01:06:23.270Z,43.53
2022-12-13T01:08:49.885Z,40.00
2022-12-13T01:11:17.000Z,46.50
2022-12-13T01:13:44.023Z,37.72
2022-12-13T01:16:11.879Z,41.42
2022-12-13T01:18:39.365Z,40.70
2022-12-13T01:21:17.334Z,42.63
2022-12-13T01:23:44.674Z,43.58
2022-12-13T01:26:14.297Z,42.00
2022-12-13T01:28:40.889Z,46.60
2022-12-13T01:31:10.400Z,43.08
2022-12-13T01:33:37.562Z,40.03
2022-12-13T01:36:07.247Z,42.83
2022-12-13T01:38:38.042Z,40.83
2022-12-13T01:41:17.183Z,48.28
2022-12-13T01:43:48.599Z,45.33
2022-12-13T01:46:17.078Z,45.70
2022-12-13T01:49:01.408Z,43.40
2022-12-13T01:51:34.217Z,43.92
2022-12-13T01:54:03.234Z,42.33
2022-12-13T01:56:39.088Z,41.05
2022-12-13T01:59:07.175Z,44.97
2022-12-13T02:01:34.224Z,46.38
2022-12-13T02:04:00.847Z,37.83
2022-12-13T02:06:33.865Z,46.90
2022-12-13T02:09:01.154Z,45.25
2022-12-13T02:11:28.198Z,41.03
2022-12-13T02:13:54.869Z,46.40
2022-12-13T02:16:34.775Z,38.25
2022-12-13T02:19:10.358Z,43.45
2022-12-13T02:21:39.803Z,39.38
2022-12-13T02:24:09.516Z,36.80
2022-12-13T02:27:06.689Z,44.42
2022-12-13T02:29:33.242Z,43.75
2022-12-13T02:32:15.634Z,46.45
2022-12-13T02:34:48.623Z,45.60
2022-12-13T02:37:29.701Z,43.28
2022-12-13T02:40:11.653Z,44.83
2022-12-13T02:42:44.926Z,46.00
2022-12-13T02:45:25.639Z,43.30
2022-12-13T02:47:55.035Z,43.35
2022-12-13T02:50:22.431Z,36.25
2022-12-13T02:52:49.164Z,40.00
2022-12-13T02:55:17.136Z,39.50
2022-12-13T03:00:18.152Z,41.08
2022-12-13T03:03:12.920Z,37.08
2022-12-13T03:06:33.703Z,49.80
2022-12-13T03:09:26.238Z,38.53
2022-12-13T03:12:17.525Z,36.13
2022-12-13T03:15:13.973Z,48.83
2022-12-13T03:17:50.050Z,42.28
2022-12-13T03:20:24.563Z,43.78
2022-12-13T03:22:52.174Z,41.42
2022-12-13T03:25:30.561Z,48.78
2022-12-13T03:28:01.678Z,38.78
2022-12-13T03:30:29.806Z,42.80
2022-12-13T03:32:56.344Z,48.17
2022-12-13T03:35:23.122Z,42.03
2022-12-13T03:37:50.283Z,41.30
2022-12-13T03:40:18.093Z,43.40
2022-12-13T03:42:44.762Z,36.58
2022-12-13T03:45:11.483Z,46.70
2022-12-13T03:47:38.042Z,42.10
2022-12-13T03:50:26.930Z,42.60
2022-12-13T03:52:52.110Z,38.28
2022-12-13T03:55:19.170Z,42.85
2022-12-13T03:57:45.732Z,43.05
2022-12-13T04:00:13.121Z,39.22
2022-12-13T04:02:39.754Z,42.25
2022-12-13T04:05:06.673Z,44.72
2022-12-13T04:07:34.423Z,47.10
2022-12-13T04:10:01.259Z,41.53
2022-12-13T04:12:48.526Z,38.38
2022-12-13T04:15:15.750Z,43.85
2022-12-13T04:17:42.780Z,41.22
2022-12-13T04:20:10.043Z,39.92
2022-12-13T04:22:36.854Z,48.77
2022-12-13T04:25:04.599Z,40.78
2022-12-13T04:27:31.412Z,41.75
2022-12-13T04:29:57.963Z,39.70
2022-12-13T04:32:26.957Z,37.00
2022-12-13T04:35:01.112Z,38.55
2022-12-13T04:37:28.471Z,37.60
2022-12-13T04:40:00.679Z,35.58
2022-12-13T04:42:27.886Z,42.80
2022-12-13T04:44:54.497Z,39.08
2022-12-13T04:47:21.210Z,40.55
2022-12-13T04:49:48.061Z,40.70
2022-12-13T04:52:22.769Z,37.70
2022-12-13T04:54:56.032Z,41.20
2022-12-13T04:57:23.378Z,39.10
2022-12-13T04:59:49.935Z,41.95
2022-12-13T05:02:23.369Z,36.13
2022-12-13T05:04:54.182Z,39.55
2022-12-13T05:07:21.787Z,42.75
2022-12-13T05:09:48.642Z,48.77
2022-12-13T05:12:22.513Z,47.75
2022-12-13T05:14:53.429Z,37.03
2022-12-13T05:17:20.539Z,44.72
2022-12-13T05:19:47.072Z,35.67
2022-12-13T05:22:19.935Z,46.60
2022-12-13T05:24:47.787Z,39.47
2022-12-13T05:27:25.017Z,38.65
2022-12-13T05:30:02.679Z,42.08
2022-12-13T05:32:33.866Z,34.15
2022-12-13T05:35:11.927Z,38.58
2022-12-13T05:37:38.580Z,39.17
2022-12-13T05:40:05.763Z,35.65
2022-12-13T05:42:32.314Z,38.33
2022-12-13T05:44:58.919Z,44.33
2022-12-13T05:47:25.489Z,42.72
2022-12-13T05:49:52.227Z,38.20
2022-12-13T05:52:20.382Z,45.45
2022-12-13T05:57:13.550Z,44.65
2022-12-13T05:59:40.094Z,43.38
2022-12-13T06:02:06.860Z,48.65
2022-12-13T06:04:33.605Z,49.63
2022-12-13T06:07:00.171Z,46.53
2022-12-13T06:09:26.763Z,63.92
2022-12-13T06:12:01.110Z,50.30
2022-12-13T06:14:28.345Z,49.03
2022-12-13T06:16:54.978Z,47.20
2022-12-13T06:19:22.518Z,45.33
2022-12-13T06:21:50.328Z,48.70
2022-12-13T06:24:18.831Z,51.50
2022-12-13T06:26:46.347Z,47.33
2022-12-13T06:29:23.800Z,46.97
2022-12-13T06:31:54.083Z,44.50
2022-12-13T06:34:20.733Z,43.67
2022-12-13T06:36:47.261Z,47.45
2022-12-13T06:39:15.659Z,49.42
2022-12-13T06:41:42.264Z,46.58
2022-12-13T06:44:08.878Z,43.95
2022-12-13T06:46:35.661Z,43.28
2022-12-13T06:49:02.488Z,42.85
2022-12-13T06:51:32.845Z,41.85
2022-12-13T06:54:00.822Z,40.67
2022-12-13T06:56:27.722Z,45.95
2022-12-13T06:58:54.299Z,43.97
2022-12-13T07:01:28.317Z,41.95
2022-12-13T07:04:04.065Z,43.30
2022-12-13T07:06:30.658Z,42.40
2022-12-13T07:08:58.138Z,45.00
2022-12-13T07:11:26.723Z,39.92
2022-12-13T07:13:54.015Z,42.72
2022-12-13T07:16:21.751Z,39.33
2022-12-13T07:18:48.704Z,41.53
2022-12-13T07:21:22.266Z,44.58
2022-12-13T07:23:54.946Z,42.58
2022-12-13T07:26:22.347Z,43.22
2022-12-13T07:28:54.503Z,44.10
2022-12-13T07:31:21.910Z,44.50
2022-12-13T07:33:48.888Z,44.80
2022-12-13T07:36:18.451Z,45.47
2022-12-13T07:38:45.430Z,40.42
2022-12-13T07:41:12.113Z,43.50
2022-12-13T07:43:38.715Z,41.45
2022-12-13T07:46:06.414Z,44.10
2022-12-13T07:48:33.498Z,39.88
2022-12-13T07:51:06.933Z,35.35
2022-12-13T07:53:34.176Z,40.85
2022-12-13T07:56:11.673Z,41.33
2022-12-13T07:58:42.837Z,42.50
2022-12-13T08:01:10.194Z,40.65
2022-12-13T08:03:36.820Z,43.95
2022-12-13T08:06:08.783Z,42.60
2022-12-13T08:08:35.841Z,43.38
2022-12-13T08:11:11.566Z,41.75
2022-12-13T08:13:39.317Z,45.22
2022-12-13T08:16:27.573Z,39.17
2022-12-13T08:19:02.013Z,44.00
2022-12-13T08:21:54.128Z,39.70
2022-12-13T08:24:23.898Z,36.28
2022-12-13T08:26:50.547Z,37.33
2022-12-13T08:29:22.353Z,42.08
2022-12-13T08:31:58.767Z,36.55
2022-12-13T08:34:27.939Z,38.17
2022-12-13T08:37:02.773Z,37.95
2022-12-13T08:39:35.756Z,39.72
2022-12-13T08:42:14.640Z,38.22
2022-12-13T08:44:44.623Z,40.10
2022-12-13T08:47:11.215Z,35.37
2022-12-13T08:49:37.957Z,38.70
2022-12-13T08:52:04.636Z,37.97
2022-12-13T08:54:33.546Z,40.60
2022-12-13T08:57:00.128Z,41.90
2022-12-13T08:59:27.047Z,38.85
2022-12-13T09:01:53.977Z,43.25
2022-12-13T09:07:01.239Z,41.63
2022-12-13T09:09:29.489Z,42.33
2022-12-13T09:11:59.078Z,36.75
2022-12-13T09:14:33.477Z,43.33
2022-12-13T09:17:02.878Z,37.75
2022-12-13T09:19:37.231Z,43.75
2022-12-13T09:22:05.208Z,37.33
2022-12-13T09:24:36.701Z,37.58
2022-12-13T09:27:09.115Z,45.65
2022-12-13T09:29:37.658Z,44.38
2022-12-13T09:32:04.559Z,38.83
2022-12-13T09:34:33.057Z,49.42
2022-12-13T09:37:01.175Z,46.33
2022-12-13T09:39:28.710Z,41.13
2022-12-13T09:42:00.943Z,41.28
2022-12-13T09:44:43.722Z,42.35
2022-12-13T09:47:47.123Z,40.53
2022-12-13T09:50:25.577Z,44.55
2022-12-13T09:52:52.564Z,47.38
2022-12-13T09:55:32.722Z,48.92
2022-12-13T09:58:01.161Z,41.63
2022-12-13T10:00:35.158Z,47.33
2022-12-13T10:03:02.028Z,45.13
2022-12-13T10:05:39.254Z,43.97
2022-12-13T10:08:20.967Z,46.80
2022-12-13T10:10:50.118Z,44.05
2022-12-13T10:13:42.938Z,43.95
2022-12-13T10:16:14.633Z,41.90
2022-12-13T10:18:50.062Z,43.25
2022-12-13T10:21:22.691Z,42.50
2022-12-13T10:26:37.394Z,41.05
2022-12-13T10:31:48.094Z,42.28
2022-12-13T10:34:24.646Z,38.42
2022-12-13T10:36:51.906Z,42.55
2022-12-13T10:39:42.383Z,49.40
2022-12-13T10:42:22.964Z,42.22
2022-12-13T10:45:10.637Z,44.47
2022-12-13T10:47:37.339Z,43.78
2022-12-13T10:50:04.170Z,44.88
2022-12-13T10:52:43.134Z,40.70
2022-12-13T10:55:28.842Z,38.42
2022-12-13T10:58:07.226Z,38.45
2022-12-13T11:00:46.329Z,46.72
2022-12-13T11:03:33.724Z,41.80
2022-12-13T11:06:10.049Z,40.17
2022-12-13T11:08:36.667Z,43.10
2022-12-13T11:11:05.418Z,41.50
2022-12-13T11:13:50.620Z,42.58
2022-12-13T11:16:23.571Z,39.78
2022-12-13T11:19:02.855Z,44.38
2022-12-13T11:21:32.472Z,44.47
2022-12-13T11:24:02.641Z,40.78
2022-12-13T11:26:32.102Z,39.03
2022-12-13T11:29:07.591Z,47.60
2022-12-13T11:31:43.820Z,44.75
2022-12-13T11:34:31.037Z,47.92
2022-12-13T11:37:06.158Z,44.83
2022-12-13T11:40:14.327Z,48.50
2022-12-13T11:42:46.619Z,46.20
2022-12-13T11:45:22.387Z,49.88
2022-12-13T11:48:08.783Z,44.72
2022-12-13T11:50:39.055Z,45.97
2022-12-13T11:53:31.574Z,42.55
2022-12-13T11:56:10.354Z,49.10
2022-12-13T11:59:01.938Z,45.65
2022-12-13T12:01:41.408Z,46.33
2022-12-13T12:04:16.226Z,46.38
2022-12-13T12:07:30.693Z,47.65
2022-12-13T12:09:58.232Z,47.13
2022-12-13T12:12:32.570Z,45.55
2022-12-13T12:15:15.945Z,47.28
2022-12-13T12:17:43.487Z,50.22
2022-12-13T12:20:13.590Z,42.78
2022-12-13T12:23:11.541Z,45.75
2022-12-13T12:25:46.164Z,45.97
2022-12-13T12:28:18.914Z,47.38
2022-12-13T12:31:13.225Z,46.22
2022-12-13T12:33:56.266Z,44.22
2022-12-13T12:37:02.844Z,46.70
2022-12-13T12:39:51.122Z,47.80
2022-12-13T12:42:56.408Z,44.50
2022-12-13T12:45:55.856Z,48.72
2022-12-13T12:48:55.043Z,42.55
2022-12-13T12:52:03.686Z,47.08
2022-12-13T12:54:36.703Z,41.97
2022-12-13T12:57:10.920Z,49.00
2022-12-13T13:00:02.736Z,50.17
2022-12-13T13:02:43.919Z,49.03
2022-12-13T13:05:28.163Z,42.38
2022-12-13T13:08:07.151Z,43.92
2022-12-13T13:10:33.898Z,48.47
2022-12-13T13:13:11.725Z,46.03
2022-12-13T13:15:39.770Z,50.90
2022-12-13T13:18:45.627Z,50.78
2022-12-13T13:21:24.052Z,48.92
2022-12-13T13:24:24.061Z,57.67
2022-12-13T13:26:53.554Z,48.53
2022-12-13T13:29:27.750Z,47.17
2022-12-13T13:32:12.867Z,53.08
2022-12-13T13:35:36.515Z,51.58
2022-12-13T13:38:24.322Z,45.40
2022-12-13T13:40:51.052Z,54.25
2022-12-13T13:43:32.462Z,50.03
2022-12-13T13:46:10.894Z,50.80
2022-12-13T13:48:40.586Z,49.05
2022-12-13T13:51:49.423Z,53.05
2022-12-13T13:55:04.422Z,52.85
2022-12-13T13:58:13.762Z,48.67
2022-12-13T14:01:19.832Z,45.72
2022-12-13T14:04:05.215Z,48.22
2022-12-13T14:06:37.748Z,46.83
2022-12-13T14:09:30.339Z,47.28
2022-12-13T14:12:24.652Z,44.15
2022-12-13T14:15:22.214Z,42.90
2022-12-13T14:18:22.842Z,45.47
2022-12-13T14:21:16.945Z,42.53
2022-12-13T14:24:04.750Z,47.13
2022-12-13T14:26:59.825Z,44.75
2022-12-13T14:29:32.047Z,44.13
2022-12-13T14:31:59.005Z,49.15
2022-12-13T14:34:27.929Z,48.20
2022-12-13T14:37:00.089Z,40.40
2022-12-13T14:39:29.432Z,40.92
2022-12-13T14:41:59.851Z,47.63
2022-12-13T14:44:31.734Z,48.38
2022-12-13T14:47:08.078Z,45.95
2022-12-13T14:49:36.864Z,50.65
2022-12-13T14:52:06.673Z,42.72
2022-12-13T14:54:58.149Z,43.97
2022-12-13T14:57:27.870Z,50.38
2022-12-13T14:59:57.036Z,47.33
2022-12-13T15:02:31.084Z,46.78
2022-12-13T15:05:03.893Z,48.15
2022-12-13T15:07:37.265Z,48.10
2022-12-13T15:10:48.302Z,52.95
2022-12-13T15:13:26.115Z,46.20
2022-12-13T15:16:10.275Z,54.55
2022-12-13T15:18:38.443Z,46.78
2022-12-13T15:21:24.129Z,47.45
2022-12-13T15:23:51.891Z,48.05
2022-12-13T15:26:28.882Z,49.78
2022-12-13T15:29:01.803Z,42.88
2022-12-13T15:31:37.375Z,47.33
2022-12-13T15:34:30.531Z,46.00
2022-12-13T15:37:28.863Z,47.33
2022-12-13T15:39:59.864Z,47.15
2022-12-13T15:42:31.646Z,51.40
2022-12-13T15:45:01.036Z,56.05
2022-12-13T15:47:29.246Z,53.28
2022-12-13T15:50:01.857Z,48.40
2022-12-13T15:52:38.214Z,57.60
2022-12-13T15:55:08.339Z,56.60
2022-12-13T15:57:48.359Z,51.42
2022-12-13T16:00:29.048Z,53.08
2022-12-13T16:03:09.328Z,53.03
2022-12-13T16:05:38.330Z,55.55
2022-12-13T16:10:49.140Z,54.42
2022-12-13T16:13:30.627Z,53.90
2022-12-13T16:16:09.243Z,52.33
2022-12-13T16:18:52.191Z,55.38
2022-12-13T16:21:19.276Z,62.97
2022-12-13T16:23:48.199Z,64.38
2022-12-13T16:26:21.436Z,64.88
2022-12-13T16:28:47.990Z,51.20
2022-12-13T16:31:21.245Z,56.75
2022-12-13T16:33:48.636Z,54.60
2022-12-13T16:36:15.266Z,56.77
2022-12-13T16:38:41.846Z,63.95
2022-12-13T16:41:09.787Z,53.50
2022-12-13T16:43:44.902Z,55.42
2022-12-13T16:47:12.088Z,52.72
2022-12-13T16:51:25.842Z,52.53
2022-12-13T16:53:52.370Z,49.60
2022-12-13T16:56:21.815Z,61.60
2022-12-13T16:58:50.469Z,53.28
2022-12-13T17:01:20.965Z,54.47
2022-12-13T17:03:48.084Z,49.22
2022-12-13T17:06:16.556Z,60.20
2022-12-13T17:08:43.119Z,59.45
2022-12-13T17:11:14.631Z,53.58
2022-12-13T17:13:44.658Z,52.15
2022-12-13T17:16:11.434Z,52.00
2022-12-13T17:18:38.059Z,56.03
2022-12-13T17:21:09.072Z,57.50
2022-12-13T17:23:35.925Z,58.75
2022-12-13T17:26:06.546Z,56.78
2022-12-13T17:28:33.375Z,52.15
2022-12-13T17:31:14.517Z,50.80
2022-12-13T17:33:41.965Z,55.35
2022-12-13T17:36:09.968Z,52.22
2022-12-13T17:38:37.162Z,59.70
2022-12-13T17:41:04.115Z,55.28
2022-12-13T17:43:34.741Z,55.33
2022-12-13T17:46:07.632Z,57.70
2022-12-13T17:48:40.177Z,56.47
2022-12-13T17:51:08.695Z,51.95
2022-12-13T17:53:36.537Z,50.42
2022-12-13T17:56:05.927Z,60.22
2022-12-13T17:58:32.770Z,63.65
2022-12-13T18:01:09.261Z,57.50
2022-12-13T18:03:35.910Z,51.55
2022-12-13T18:06:02.458Z,52.70
2022-12-13T18:08:29.011Z,52.92
2022-12-13T18:11:23.835Z,57.88
2022-12-13T18:13:43.097Z,49.65
2022-12-13T18:16:13.322Z,55.72
2022-12-13T18:18:39.881Z,49.22
2022-12-13T18:21:08.597Z,56.53
2022-12-13T18:23:35.926Z,56.30
2022-12-13T18:26:05.076Z,59.17
2022-12-13T18:28:31.873Z,57.92
2022-12-13T18:31:01.703Z,61.78
2022-12-13T18:33:28.712Z,52.35
2022-12-13T18:35:55.538Z,57.37
2022-12-13T18:38:23.245Z,54.10
2022-12-13T18:40:50.623Z,52.28
2022-12-13T18:43:20.499Z,58.75
2022-12-13T18:45:47.038Z,51.35
2022-12-13T18:48:13.590Z,53.42
2022-12-13T18:50:45.549Z,49.20
2022-12-13T18:53:15.174Z,55.00
2022-12-13T18:55:42.263Z,55.05
2022-12-13T18:58:08.807Z,57.38
2022-12-13T19:00:35.365Z,55.05
2022-12-13T19:03:02.028Z,56.45
2022-12-13T19:05:28.674Z,56.63
2022-12-13T19:07:55.274Z,59.25
2022-12-13T19:10:21.806Z,49.65
2022-12-13T19:12:48.377Z,61.13
2022-12-13T19:15:16.850Z,58.70
2022-12-13T19:17:43.673Z,55.75
2022-12-13T19:20:10.854Z,60.35
2022-12-13T19:22:37.724Z,57.97
2022-12-13T19:25:04.599Z,57.97
2022-12-13T19:27:31.168Z,51.97
2022-12-13T19:29:57.736Z,56.63
2022-12-13T19:32:24.887Z,58.45
2022-12-13T19:34:51.490Z,57.10
2022-12-13T19:37:19.269Z,57.70
2022-12-13T19:39:45.802Z,57.22
2022-12-13T19:42:12.412Z,48.75
2022-12-13T19:44:38.948Z,51.55
2022-12-13T19:47:06.580Z,51.45
2022-12-13T19:49:33.183Z,53.25
2022-12-13T19:52:00.257Z,57.90
2022-12-13T19:54:28.202Z,49.70
2022-12-13T19:56:54.964Z,45.53
2022-12-13T19:59:22.305Z,50.10
2022-12-13T20:01:48.897Z,53.60
2022-12-13T20:04:15.792Z,48.47
2022-12-13T20:06:42.600Z,50.95
2022-12-13T20:09:09.258Z,51.60
2022-12-13T20:11:36.279Z,48.20
2022-12-13T20:14:02.900Z,48.03
2022-12-13T20:16:29.577Z,52.75
2022-12-13T20:18:57.779Z,47.65
2022-12-13T20:23:51.255Z,51.53
2022-12-13T20:26:20.925Z,48.05
2022-12-13T20:28:48.414Z,52.88
2022-12-13T20:31:18.414Z,49.35
2022-12-13T20:33:45.028Z,51.10
2022-12-13T20:36:24.572Z,45.55
2022-12-13T20:38:52.718Z,54.30
2022-12-13T20:41:19.310Z,43.08
2022-12-13T20:43:48.283Z,45.75
2022-12-13T20:46:15.404Z,52.75
2022-12-13T20:48:43.703Z,46.28
2022-12-13T20:53:40.482Z,43.27
2022-12-13T20:56:10.817Z,44.35
2022-12-13T20:58:40.076Z,47.47
2022-12-13T21:01:07.075Z,49.70
2022-12-13T21:03:34.328Z,48.85
2022-12-13T21:06:01.002Z,50.97
2022-12-13T21:08:46.067Z,45.05
2022-12-13T21:11:24.877Z,44.63
2022-12-13T21:14:03.760Z,47.53
2022-12-13T21:16:53.222Z,45.13
2022-12-13T21:19:25.382Z,51.00
2022-12-13T21:21:52.906Z,48.22
2022-12-13T21:24:20.981Z,44.97
2022-12-13T21:26:47.704Z,48.95
2022-12-13T21:29:16.091Z,45.53
2022-12-13T21:31:44.249Z,48.65
2022-12-13T21:34:15.754Z,45.42
2022-12-13T21:36:44.019Z,47.50
2022-12-13T21:41:39.837Z,36.72
2022-12-13T21:44:06.457Z,43.53
2022-12-13T21:47:10.369Z,41.60
2022-12-13T21:49:19.746Z,44.88
2022-12-13T21:51:48.362Z,41.83
2022-12-13T21:54:15.663Z,49.30
2022-12-13T21:57:00.875Z,51.20
2022-12-13T21:59:28.768Z,42.90
2022-12-13T22:02:12.074Z,39.53
2022-12-13T22:04:41.677Z,40.97
2022-12-13T22:07:09.127Z,41.15
2022-12-13T22:09:36.311Z,42.47
2022-12-13T22:12:09.290Z,40.33
2022-12-13T22:14:36.358Z,39.20
2022-12-13T22:17:03.434Z,43.58
2022-12-13T22:19:30.140Z,42.92
2022-12-13T22:21:56.705Z,39.80
2022-12-13T22:24:23.269Z,38.00
2022-12-13T22:26:49.799Z,37.05
2022-12-13T22:29:16.623Z,45.35
2022-12-13T22:31:43.387Z,39.80
2022-12-13T22:34:15.573Z,42.40
2022-12-13T22:36:42.122Z,39.13
2022-12-13T22:39:16.458Z,38.22
2022-12-13T22:41:43.263Z,37.53
2022-12-13T22:44:13.826Z,40.97
2022-12-13T22:46:40.999Z,38.92
2022-12-13T22:49:08.403Z,40.20
2022-12-13T22:51:35.217Z,34.60
2022-12-13T22:54:01.793Z,37.00
2022-12-13T22:56:28.578Z,33.88
2022-12-13T22:58:56.572Z,38.28
2022-12-13T23:01:26.982Z,36.15
2022-12-13T23:03:54.009Z,37.25
2022-12-13T23:06:28.472Z,39.10
2022-12-13T23:09:03.068Z,36.35
2022-12-13T23:11:48.545Z,34.00
2022-12-13T23:14:18.067Z,35.78
2022-12-13T23:16:44.724Z,37.65
2022-12-13T23:22:02.016Z,35.25
2022-12-13T23:24:28.598Z,37.00
2022-12-13T23:26:55.185Z,36.25
2022-12-13T23:29:21.879Z,32.30
2022-12-13T23:31:49.033Z,31.05
2022-12-13T23:34:15.891Z,35.10
2022-12-13T23:36:42.629Z,37.08
2022-12-13T23:39:09.334Z,35.42
2022-12-13T23:41:36.429Z,36.70
2022-12-13T23:44:03.223Z,37.20
2022-12-13T23:46:34.937Z,33.13
2022-12-13T23:49:04.120Z,34.00
2022-12-13T23:51:31.379Z,36.03
2022-12-13T23:53:58.171Z,34.13
2022-12-13T23:56:24.888Z,37.15
2022-12-13T23:58:51.562Z,36.55
